createdAt,value
2023-03-22T00:02:02.645Z,8.88
2023-03-22T00:04:29.102Z,7.25
2023-03-22T00:06:55.462Z,8.82
2023-03-22T00:09:21.821Z,9.13
2023-03-22T00:11:50.937Z,7.80
2023-03-22T00:14:18.384Z,8.10
2023-03-22T00:16:46.186Z,9.40
2023-03-22T00:19:12.673Z,9.55
2023-03-22T00:21:39.034Z,8.95
2023-03-22T00:24:05.785Z,9.77
2023-03-22T00:26:32.155Z,9.38
2023-03-22T00:28:58.557Z,9.82
2023-03-22T00:31:25.112Z,9.27
2023-03-22T00:33:51.529Z,10.98
2023-03-22T00:36:17.981Z,9.02
2023-03-22T00:38:44.959Z,7.95
2023-03-22T00:41:17.362Z,8.45
2023-03-22T00:43:44.538Z,8.70
2023-03-22T00:46:12.449Z,9.55
2023-03-22T00:48:39.247Z,8.88
2023-03-22T00:51:06.522Z,10.15
2023-03-22T00:53:33.544Z,9.05
2023-03-22T00:56:00.251Z,11.15
2023-03-22T00:58:26.793Z,10.23
2023-03-22T01:00:53.348Z,12.32
2023-03-22T01:03:22.048Z,12.30
2023-03-22T01:05:51.857Z,8.63
2023-03-22T01:08:18.284Z,10.23
2023-03-22T01:10:44.828Z,10.23
2023-03-22T01:13:13.431Z,11.13
2023-03-22T01:15:41.253Z,12.73
2023-03-22T01:18:08.716Z,9.27
2023-03-22T01:20:36.185Z,10.25
2023-03-22T01:23:02.902Z,11.50
2023-03-22T01:25:29.450Z,9.35
2023-03-22T01:27:56.113Z,10.82
2023-03-22T01:30:22.554Z,9.15
2023-03-22T01:32:48.973Z,10.82
2023-03-22T01:35:15.509Z,9.52
2023-03-22T01:37:41.875Z,11.60
2023-03-22T01:40:08.766Z,12.95
2023-03-22T01:42:35.586Z,11.10
2023-03-22T01:45:39.988Z,10.65
2023-03-22T01:48:46.096Z,10.48
2023-03-22T01:53:48.174Z,9.93
2023-03-22T01:56:14.644Z,11.82
2023-03-22T01:58:42.031Z,14.88
2023-03-22T02:01:10.287Z,11.90
2023-03-22T02:03:58.365Z,11.90
2023-03-22T02:06:26.430Z,11.13
2023-03-22T02:08:58.049Z,10.60
2023-03-22T02:11:38.466Z,10.00
2023-03-22T02:14:13.752Z,9.48
2023-03-22T02:17:01.251Z,12.95
2023-03-22T02:19:42.250Z,12.48
2023-03-22T02:22:39.362Z,14.93
2023-03-22T02:25:43.704Z,15.40
2023-03-22T02:28:10.122Z,12.32
2023-03-22T02:31:02.151Z,13.35
2023-03-22T02:33:59.686Z,15.52
2023-03-22T02:36:47.684Z,11.27
2023-03-22T02:39:31.614Z,14.18
2023-03-22T02:42:17.403Z,12.70
2023-03-22T02:45:01.428Z,11.55
2023-03-22T02:47:40.823Z,13.95
2023-03-22T02:50:15.217Z,13.27
2023-03-22T02:52:52.824Z,12.52
2023-03-22T02:55:45.296Z,11.68
2023-03-22T02:58:29.137Z,12.10
2023-03-22T03:01:01.780Z,13.13
2023-03-22T03:03:31.961Z,13.52
2023-03-22T03:06:08.359Z,12.88
2023-03-22T03:08:36.926Z,12.95
2023-03-22T03:11:03.447Z,11.65
2023-03-22T03:13:30.381Z,12.60
2023-03-22T03:15:59.457Z,16.90
2023-03-22T03:18:50.340Z,12.15
2023-03-22T03:21:19.600Z,12.30
2023-03-22T03:24:11.335Z,14.80
2023-03-22T03:27:00.809Z,14.55
2023-03-22T03:29:38.684Z,11.80
2023-03-22T03:32:31.479Z,12.70
2023-03-22T03:35:22.986Z,11.27
2023-03-22T03:37:53.822Z,17.38
2023-03-22T03:40:26.595Z,13.75
2023-03-22T03:42:56.080Z,14.15
2023-03-22T03:45:23.774Z,11.73
2023-03-22T03:47:56.853Z,13.95
2023-03-22T03:50:25.472Z,12.70
2023-03-22T03:52:53.787Z,11.93
2023-03-22T03:55:21.164Z,15.23
2023-03-22T03:57:47.715Z,12.93
2023-03-22T04:00:14.917Z,12.23
2023-03-22T04:02:42.439Z,11.52
2023-03-22T04:05:09.944Z,14.30
2023-03-22T04:07:37.208Z,14.32
2023-03-22T04:10:05.200Z,14.48
2023-03-22T04:12:32.526Z,13.77
2023-03-22T04:14:59.010Z,17.33
2023-03-22T04:17:27.064Z,14.60
2023-03-22T04:19:53.418Z,12.98
2023-03-22T04:22:19.806Z,12.68
2023-03-22T04:24:50.075Z,14.27
2023-03-22T04:27:17.988Z,13.68
2023-03-22T04:29:48.419Z,21.45
2023-03-22T04:32:19.048Z,12.98
2023-03-22T04:34:46.445Z,13.02
2023-03-22T04:37:13.808Z,12.35
2023-03-22T04:39:40.456Z,13.90
2023-03-22T04:42:06.828Z,13.35
2023-03-22T04:44:33.217Z,18.05
2023-03-22T04:46:59.612Z,10.57
2023-03-22T04:49:29.430Z,8.57
2023-03-22T04:51:56.010Z,14.57
2023-03-22T04:54:23.259Z,16.88
2023-03-22T04:56:50.065Z,14.13
2023-03-22T04:59:20.310Z,14.45
2023-03-22T05:01:51.358Z,17.25
2023-03-22T05:04:18.651Z,15.82
2023-03-22T05:06:45.616Z,13.15
2023-03-22T05:09:12.607Z,16.08
2023-03-22T05:11:40.574Z,14.30
2023-03-22T05:14:08.757Z,13.43
2023-03-22T05:16:35.874Z,16.45
2023-03-22T05:19:02.995Z,10.98
2023-03-22T05:21:36.808Z,13.15
2023-03-22T05:24:03.770Z,15.52
2023-03-22T05:26:30.410Z,13.50
2023-03-22T05:28:56.859Z,11.68
2023-03-22T05:31:23.959Z,15.30
2023-03-22T05:33:52.048Z,13.10
2023-03-22T05:36:20.510Z,12.60
2023-03-22T05:38:47.529Z,13.82
2023-03-22T05:41:14.041Z,11.52
2023-03-22T05:43:40.839Z,12.82
2023-03-22T05:46:11.782Z,12.63
2023-03-22T05:48:39.006Z,11.45
2023-03-22T05:51:10.286Z,11.38
2023-03-22T05:53:37.063Z,11.68
2023-03-22T05:56:03.684Z,9.77
2023-03-22T05:58:31.820Z,12.15
2023-03-22T06:01:00.944Z,11.05
2023-03-22T06:03:28.388Z,11.80
2023-03-22T06:05:54.940Z,9.85
2023-03-22T06:08:24.732Z,13.30
2023-03-22T06:10:53.396Z,13.40
2023-03-22T06:13:20.680Z,10.10
2023-03-22T06:15:47.407Z,13.27
2023-03-22T06:18:13.854Z,14.52
2023-03-22T06:20:40.733Z,13.45
2023-03-22T06:23:07.315Z,13.05
2023-03-22T06:25:33.719Z,14.63
2023-03-22T06:28:00.373Z,13.07
2023-03-22T06:30:26.971Z,11.20
2023-03-22T06:32:53.459Z,11.88
2023-03-22T06:35:20.085Z,12.93
2023-03-22T06:37:46.546Z,13.82
2023-03-22T06:40:12.947Z,10.60
2023-03-22T06:42:39.287Z,12.20
2023-03-22T06:45:07.049Z,11.77
2023-03-22T06:47:33.374Z,11.25
2023-03-22T06:49:59.726Z,12.40
2023-03-22T06:52:26.135Z,12.23
2023-03-22T06:54:52.578Z,12.73
2023-03-22T06:57:18.970Z,15.18
2023-03-22T06:59:45.492Z,13.23
2023-03-22T07:02:12.153Z,13.15
2023-03-22T07:04:38.602Z,13.75
2023-03-22T07:07:05.627Z,12.75
2023-03-22T07:09:31.991Z,12.20
2023-03-22T07:11:58.354Z,12.80
2023-03-22T07:14:24.739Z,11.77
2023-03-22T07:16:51.164Z,14.77
2023-03-22T07:19:18.379Z,12.02
2023-03-22T07:21:44.825Z,16.63
2023-03-22T07:24:11.996Z,10.35
2023-03-22T07:26:39.049Z,9.43
2023-03-22T07:29:05.418Z,8.55
2023-03-22T07:31:36.361Z,7.85
2023-03-22T07:34:04.081Z,8.70
2023-03-22T07:36:30.975Z,11.00
2023-03-22T07:38:57.765Z,7.28
2023-03-22T07:41:25.381Z,12.70
2023-03-22T07:43:56.828Z,9.90
2023-03-22T07:46:28.783Z,10.10
2023-03-22T07:48:55.180Z,9.60
2023-03-22T07:51:21.498Z,7.65
2023-03-22T07:53:47.919Z,10.25
2023-03-22T07:56:14.390Z,7.88
2023-03-22T07:58:40.923Z,8.70
2023-03-22T08:01:10.816Z,8.43
2023-03-22T08:03:37.677Z,7.90
2023-03-22T08:06:07.731Z,9.88
2023-03-22T08:08:35.564Z,8.85
2023-03-22T08:11:02.078Z,7.57
2023-03-22T08:13:28.592Z,8.20
2023-03-22T08:15:55.193Z,10.43
2023-03-22T08:18:21.843Z,7.88
2023-03-22T08:20:54.585Z,8.45
2023-03-22T08:23:28.791Z,10.07
2023-03-22T08:26:01.359Z,9.13
2023-03-22T08:28:27.770Z,8.60
2023-03-22T08:30:54.153Z,5.93
2023-03-22T08:33:23.473Z,7.07
2023-03-22T08:35:50.655Z,8.98
2023-03-22T08:38:18.032Z,9.45
2023-03-22T08:40:47.902Z,7.85
2023-03-22T08:43:14.256Z,7.43
2023-03-22T08:45:41.042Z,5.72
2023-03-22T08:48:07.631Z,10.43
2023-03-22T08:50:34.908Z,8.80
2023-03-22T08:53:01.299Z,9.88
2023-03-22T08:55:27.809Z,7.53
2023-03-22T08:57:58.682Z,10.07
2023-03-22T09:00:25.478Z,6.15
2023-03-22T09:02:52.036Z,6.95
2023-03-22T09:05:18.628Z,5.28
2023-03-22T09:07:45.268Z,6.05
2023-03-22T09:10:11.931Z,6.43
2023-03-22T09:12:38.746Z,9.60
2023-03-22T09:15:06.243Z,9.45
2023-03-22T09:17:32.943Z,3.35
2023-03-22T09:20:11.637Z,8.27
2023-03-22T09:22:38.850Z,3.70
2023-03-22T09:25:06.438Z,2.92
2023-03-22T09:27:33.187Z,6.95
2023-03-22T09:30:00.216Z,7.10
2023-03-22T09:32:26.620Z,4.68
2023-03-22T09:34:53.169Z,5.25
2023-03-22T09:37:20.297Z,5.93
2023-03-22T09:39:46.739Z,6.07
2023-03-22T09:42:38.363Z,5.57
2023-03-22T09:45:08.674Z,8.90
2023-03-22T09:47:44.841Z,8.70
2023-03-22T09:50:19.902Z,6.13
2023-03-22T09:52:46.530Z,7.45
2023-03-22T09:55:33.180Z,5.10
2023-03-22T09:58:10.713Z,6.57
2023-03-22T10:00:43.338Z,3.78
2023-03-22T10:03:41.232Z,3.20
2023-03-22T10:06:21.759Z,6.63
2023-03-22T10:09:03.332Z,6.07
2023-03-22T10:11:48.045Z,3.42
2023-03-22T10:14:36.024Z,9.40
2023-03-22T10:17:08.484Z,6.13
2023-03-22T10:19:53.064Z,5.20
2023-03-22T10:22:25.115Z,5.68
2023-03-22T10:24:53.317Z,5.55
2023-03-22T10:27:22.292Z,4.50
2023-03-22T10:29:55.777Z,6.10
2023-03-22T10:33:04.473Z,5.03
2023-03-22T10:35:31.894Z,7.25
2023-03-22T10:38:01.941Z,6.35
2023-03-22T10:40:34.061Z,6.18
2023-03-22T10:43:07.717Z,6.65
2023-03-22T10:45:36.086Z,4.38
2023-03-22T10:48:21.202Z,4.45
2023-03-22T10:50:47.768Z,6.35
2023-03-22T10:53:20.033Z,7.50
2023-03-22T10:55:46.492Z,8.27
2023-03-22T10:58:18.910Z,4.32
2023-03-22T11:00:51.800Z,7.18
2023-03-22T11:03:31.898Z,4.82
2023-03-22T11:06:11.483Z,7.32
2023-03-22T11:08:47.675Z,3.83
2023-03-22T11:11:19.972Z,4.78
2023-03-22T11:13:52.390Z,5.40
2023-03-22T11:16:20.164Z,12.40
2023-03-22T11:18:47.113Z,5.82
2023-03-22T11:21:17.004Z,8.13
2023-03-22T11:23:58.346Z,8.70
2023-03-22T11:26:27.678Z,8.75
2023-03-22T11:29:04.569Z,5.55
2023-03-22T11:31:55.142Z,6.03
2023-03-22T11:34:24.255Z,6.97
2023-03-22T11:36:57.090Z,6.00
2023-03-22T11:39:28.089Z,6.65
2023-03-22T11:41:58.199Z,5.97
2023-03-22T11:44:27.026Z,7.35
2023-03-22T11:47:00.585Z,4.80
2023-03-22T11:49:37.638Z,5.10
2023-03-22T11:52:11.291Z,4.82
2023-03-22T11:54:39.528Z,4.38
2023-03-22T11:57:13.402Z,6.43
2023-03-22T11:59:58.267Z,6.85
2023-03-22T12:02:32.406Z,4.10
2023-03-22T12:05:05.436Z,6.43
2023-03-22T12:07:34.501Z,5.13
2023-03-22T12:10:15.768Z,4.95
2023-03-22T12:12:51.612Z,7.00
2023-03-22T12:15:22.270Z,5.78
2023-03-22T12:17:58.673Z,5.20
2023-03-22T12:20:43.103Z,8.95
2023-03-22T12:23:15.555Z,5.88
2023-03-22T12:25:49.157Z,6.20
2023-03-22T12:28:20.231Z,6.63
2023-03-22T12:30:51.328Z,4.82
2023-03-22T12:33:27.437Z,8.88
2023-03-22T12:35:58.706Z,8.18
2023-03-22T12:38:37.056Z,8.05
2023-03-22T12:41:09.785Z,4.90
2023-03-22T12:43:44.380Z,7.32
2023-03-22T12:46:19.385Z,5.05
2023-03-22T12:51:15.577Z,4.47
2023-03-22T12:53:46.886Z,3.00
2023-03-22T12:56:17.485Z,5.50
2023-03-22T12:58:51.792Z,4.95
2023-03-22T13:01:30.065Z,5.63
2023-03-22T13:03:57.793Z,4.75
2023-03-22T13:06:58.589Z,3.65
2023-03-22T13:09:27.663Z,4.70
2023-03-22T13:12:16.375Z,4.95
2023-03-22T13:14:48.872Z,8.00
2023-03-22T13:17:35.624Z,5.43
2023-03-22T13:20:11.442Z,5.05
2023-03-22T13:22:38.030Z,6.07
2023-03-22T13:25:12.468Z,5.18
2023-03-22T13:28:03.301Z,4.22
2023-03-22T13:30:34.658Z,5.20
2023-03-22T13:33:10.314Z,5.38
2023-03-22T13:35:39.891Z,4.10
2023-03-22T13:38:19.624Z,4.60
2023-03-22T13:40:51.813Z,6.95
2023-03-22T13:43:27.352Z,6.63
2023-03-22T13:46:06.967Z,5.47
2023-03-22T13:48:43.911Z,8.65
2023-03-22T13:51:25.765Z,6.00
2023-03-22T13:54:00.340Z,4.63
2023-03-22T13:56:41.070Z,7.75
2023-03-22T13:59:32.402Z,3.28
2023-03-22T14:02:16.298Z,5.07
2023-03-22T14:04:46.151Z,6.10
2023-03-22T14:07:13.732Z,8.07
2023-03-22T14:09:48.703Z,5.72
2023-03-22T14:14:54.911Z,6.03
2023-03-22T14:17:53.587Z,4.65
2023-03-22T14:20:22.833Z,4.35
